createdAt,value
2018-10-17T00:00:52.595Z,99.90
2018-10-17T00:03:23.101Z,99.90
2018-10-17T00:05:52.515Z,99.90
2018-10-17T00:08:23.460Z,99.90
2018-10-17T00:10:52.677Z,99.90
2018-10-17T00:13:23.589Z,99.90
2018-10-17T00:15:53.079Z,99.90
2018-10-17T00:18:24.251Z,99.90
2018-10-17T00:20:53.348Z,99.90
2018-10-17T00:23:24.167Z,99.90
2018-10-17T00:25:53.346Z,99.90
2018-10-17T00:28:24.113Z,99.90
2018-10-17T00:30:54.023Z,99.90
2018-10-17T00:33:24.814Z,99.90
2018-10-17T00:35:54.065Z,99.90
2018-10-17T00:38:24.169Z,99.90
2018-10-17T00:40:53.470Z,99.90
2018-10-17T00:43:26.103Z,99.90
2018-10-17T00:45:55.417Z,99.90
2018-10-17T00:48:26.283Z,99.90
2018-10-17T00:50:56.077Z,99.90
2018-10-17T00:53:25.885Z,99.90
2018-10-17T00:55:55.142Z,99.90
2018-10-17T00:58:25.438Z,99.90
2018-10-17T01:00:54.991Z,99.90
2018-10-17T01:03:25.525Z,99.90
2018-10-17T01:05:54.960Z,99.90
2018-10-17T01:08:25.819Z,99.90
2018-10-17T01:10:55.548Z,99.90
2018-10-17T01:13:27.087Z,99.90
2018-10-17T01:15:56.552Z,99.90
2018-10-17T01:18:27.512Z,99.90
2018-10-17T01:20:56.767Z,99.90
2018-10-17T01:23:26.701Z,99.90
2018-10-17T01:25:55.827Z,99.90
2018-10-17T01:28:27.596Z,99.90
2018-10-17T01:30:56.948Z,99.90
2018-10-17T01:33:27.482Z,99.90
2018-10-17T01:35:56.910Z,99.90
2018-10-17T01:38:27.694Z,99.90
2018-10-17T01:40:56.978Z,99.90
2018-10-17T01:43:28.141Z,99.90
2018-10-17T01:45:57.734Z,99.90
2018-10-17T01:48:28.796Z,99.90
2018-10-17T01:50:58.759Z,99.90
2018-10-17T01:53:29.766Z,99.90
2018-10-17T01:55:59.336Z,99.90
2018-10-17T01:58:29.448Z,99.90
2018-10-17T02:00:58.804Z,99.90
2018-10-17T02:03:29.448Z,99.90
2018-10-17T02:05:58.603Z,99.90
2018-10-17T02:08:28.675Z,99.90
2018-10-17T02:10:58.880Z,99.90
2018-10-17T02:13:29.007Z,99.90
2018-10-17T02:15:58.494Z,99.90
2018-10-17T02:18:29.091Z,99.90
2018-10-17T02:20:58.734Z,99.90
2018-10-17T02:23:29.196Z,99.90
2018-10-17T02:25:58.383Z,99.90
2018-10-17T02:28:30.258Z,99.90
2018-10-17T02:30:59.908Z,99.90
2018-10-17T02:33:30.128Z,99.90
2018-10-17T02:35:59.414Z,99.90
2018-10-17T02:38:30.500Z,99.90
2018-10-17T02:40:59.608Z,99.90
2018-10-17T02:43:30.199Z,99.90
2018-10-17T02:45:59.542Z,99.90
2018-10-17T02:48:30.746Z,99.90
2018-10-17T02:51:00.006Z,99.90
2018-10-17T02:53:31.197Z,99.90
2018-10-17T02:56:00.512Z,99.90
2018-10-17T02:58:31.312Z,99.90
2018-10-17T03:01:00.689Z,99.90
2018-10-17T03:03:31.864Z,99.90
2018-10-17T03:06:01.379Z,99.90
2018-10-17T03:08:31.678Z,99.90
2018-10-17T03:11:00.861Z,99.90
2018-10-17T03:13:32.233Z,99.90
2018-10-17T03:16:01.800Z,99.90
2018-10-17T03:18:31.829Z,99.90
2018-10-17T03:21:01.055Z,99.90
2018-10-17T03:23:32.234Z,99.90
2018-10-17T03:26:01.796Z,99.90
2018-10-17T03:28:32.136Z,99.90
2018-10-17T03:31:01.851Z,99.90
2018-10-17T03:33:33.374Z,99.90
2018-10-17T03:36:03.549Z,99.90
2018-10-17T03:38:33.403Z,99.90
2018-10-17T03:41:03.144Z,99.90
2018-10-17T03:43:33.255Z,99.90
2018-10-17T03:46:09.580Z,99.90
2018-10-17T03:48:38.751Z,99.90
2018-10-17T03:51:07.811Z,99.90
2018-10-17T03:53:37.183Z,99.90
2018-10-17T03:56:06.493Z,99.90
2018-10-17T03:58:35.981Z,99.90
2018-10-17T04:01:05.648Z,99.90
2018-10-17T04:03:35.003Z,99.90
2018-10-17T04:06:04.593Z,99.90
2018-10-17T04:08:34.395Z,99.90
2018-10-17T04:11:03.967Z,99.90
2018-10-17T04:13:34.659Z,99.90
2018-10-17T04:16:04.102Z,99.90
2018-10-17T04:18:35.161Z,99.90
2018-10-17T04:21:04.407Z,99.90
2018-10-17T04:23:35.355Z,99.90
2018-10-17T04:26:04.622Z,99.90
2018-10-17T04:28:36.159Z,99.90
2018-10-17T04:31:05.743Z,99.90
2018-10-17T04:33:35.787Z,99.90
2018-10-17T04:36:05.257Z,99.90
2018-10-17T04:38:36.195Z,99.90
2018-10-17T04:41:06.595Z,99.90
2018-10-17T04:43:36.538Z,99.90
2018-10-17T04:46:05.955Z,99.90
2018-10-17T04:48:36.905Z,99.90
2018-10-17T04:51:06.273Z,99.90
2018-10-17T04:53:37.021Z,99.90
2018-10-17T04:56:06.995Z,99.90
2018-10-17T04:58:37.570Z,99.90
2018-10-17T05:01:07.082Z,99.90
2018-10-17T05:03:37.203Z,99.90
2018-10-17T05:06:06.519Z,99.90
2018-10-17T05:08:41.707Z,99.90
2018-10-17T05:11:11.053Z,99.90
2018-10-17T05:13:40.483Z,99.90
2018-10-17T05:16:09.687Z,99.90
2018-10-17T05:18:39.263Z,99.90
2018-10-17T05:21:08.363Z,99.90
2018-10-17T05:23:38.330Z,99.90
2018-10-17T05:26:07.500Z,99.90
2018-10-17T05:28:37.959Z,99.90
2018-10-17T05:31:07.348Z,99.90
2018-10-17T05:33:37.879Z,99.90
2018-10-17T05:36:07.397Z,99.90
2018-10-17T05:38:37.910Z,99.90
2018-10-17T05:41:07.574Z,99.90
2018-10-17T05:43:39.457Z,99.90
2018-10-17T05:46:08.761Z,99.90
2018-10-17T05:48:38.994Z,99.90
2018-10-17T05:51:08.236Z,99.90
2018-10-17T05:53:39.161Z,99.90
2018-10-17T05:56:08.755Z,99.90
2018-10-17T05:58:41.075Z,99.90
2018-10-17T06:01:12.596Z,99.90
2018-10-17T06:03:42.117Z,99.90
2018-10-17T06:06:11.851Z,99.90
2018-10-17T06:08:41.405Z,99.90
2018-10-17T06:11:10.192Z,99.90
2018-10-17T06:13:39.213Z,99.90
2018-10-17T06:16:08.067Z,99.90
2018-10-17T06:18:38.862Z,99.90
2018-10-17T06:21:07.540Z,99.90
2018-10-17T06:23:39.213Z,99.90
2018-10-17T06:26:07.963Z,99.90
2018-10-17T06:28:40.083Z,99.90
2018-10-17T06:31:08.956Z,99.90
2018-10-17T06:33:37.841Z,99.90
2018-10-17T06:36:06.819Z,99.90
2018-10-17T06:38:38.283Z,99.90
2018-10-17T06:41:07.251Z,99.90
2018-10-17T06:43:36.863Z,99.90
2018-10-17T06:46:06.307Z,99.90
2018-10-17T06:48:35.465Z,99.90
2018-10-17T06:51:04.523Z,99.90
2018-10-17T06:53:33.326Z,99.90
2018-10-17T06:56:02.190Z,99.90
2018-10-17T06:58:31.249Z,99.90
2018-10-17T07:01:00.050Z,99.90
2018-10-17T07:03:28.693Z,99.90
2018-10-17T07:05:57.517Z,99.90
2018-10-17T07:08:26.274Z,99.90
2018-10-17T07:10:55.098Z,99.90
2018-10-17T07:13:23.884Z,99.90
2018-10-17T07:15:52.691Z,99.90
2018-10-17T07:18:21.941Z,99.90
2018-10-17T07:20:50.821Z,99.90
2018-10-17T07:23:19.542Z,99.90
2018-10-17T07:25:48.534Z,99.90
2018-10-17T07:28:17.252Z,99.90
2018-10-17T07:30:54.287Z,99.90
2018-10-17T07:33:26.398Z,99.90
2018-10-17T07:36:02.155Z,99.90
2018-10-17T07:38:32.357Z,99.90
2018-10-17T07:41:01.224Z,99.90
2018-10-17T07:43:30.086Z,99.90
2018-10-17T07:45:58.827Z,99.90
2018-10-17T07:48:27.657Z,99.90
2018-10-17T07:50:56.317Z,99.90
2018-10-17T07:53:25.256Z,99.90
2018-10-17T07:55:54.172Z,99.90
2018-10-17T07:58:22.947Z,99.90
2018-10-17T08:00:51.882Z,99.90
2018-10-17T08:03:20.782Z,99.90
2018-10-17T08:05:49.634Z,99.90
2018-10-17T08:08:18.618Z,99.90
2018-10-17T08:10:47.558Z,99.90
2018-10-17T08:13:16.646Z,99.90
2018-10-17T08:15:45.996Z,99.90
2018-10-17T08:18:14.929Z,99.90
2018-10-17T08:20:43.712Z,99.90
2018-10-17T08:23:12.538Z,99.90
2018-10-17T08:25:41.553Z,99.90
2018-10-17T08:28:10.544Z,99.90
2018-10-17T08:30:39.391Z,99.90
2018-10-17T08:33:08.200Z,99.90
2018-10-17T08:35:37.040Z,99.90
2018-10-17T08:38:05.790Z,99.90
2018-10-17T08:40:34.430Z,99.90
2018-10-17T08:43:03.198Z,99.90
2018-10-17T08:45:32.040Z,99.90
2018-10-17T08:48:00.938Z,99.90
2018-10-17T08:50:29.836Z,99.90
2018-10-17T08:52:58.537Z,99.90
2018-10-17T08:55:27.318Z,99.90
2018-10-17T08:57:56.247Z,99.90
2018-10-17T09:00:25.073Z,99.90
2018-10-17T09:02:53.997Z,99.90
2018-10-17T09:05:22.848Z,99.90
2018-10-17T09:07:51.766Z,99.90
2018-10-17T09:10:20.502Z,99.90
2018-10-17T09:12:49.138Z,99.90
2018-10-17T09:15:17.990Z,99.90
2018-10-17T09:17:46.988Z,99.90
2018-10-17T09:20:16.293Z,99.90
2018-10-17T09:22:44.878Z,99.90
2018-10-17T09:25:13.958Z,99.90
2018-10-17T09:27:42.952Z,99.90
2018-10-17T09:30:13.409Z,99.90
2018-10-17T09:32:42.145Z,99.90
2018-10-17T09:35:14.450Z,99.90
2018-10-17T09:37:43.364Z,99.90
2018-10-17T09:40:12.550Z,99.90
2018-10-17T09:42:41.604Z,99.90
2018-10-17T09:45:10.916Z,99.90
2018-10-17T09:47:39.805Z,99.90
2018-10-17T09:50:09.661Z,99.90
2018-10-17T09:52:38.525Z,99.90
2018-10-17T09:55:07.838Z,99.90
2018-10-17T09:57:36.602Z,99.90
2018-10-17T10:00:10.846Z,99.90
2018-10-17T10:02:39.512Z,99.90
2018-10-17T10:05:08.266Z,99.90
2018-10-17T10:07:37.048Z,99.90
2018-10-17T10:10:06.527Z,99.90
2018-10-17T10:12:35.194Z,99.90
2018-10-17T10:15:04.179Z,99.90
2018-10-17T10:17:32.941Z,99.90
2018-10-17T10:20:01.732Z,99.90
2018-10-17T10:22:30.580Z,99.90
2018-10-17T10:24:59.399Z,99.90
2018-10-17T10:27:28.506Z,99.90
2018-10-17T10:29:57.175Z,99.90
2018-10-17T10:32:26.027Z,99.90
2018-10-17T10:34:54.878Z,99.90
2018-10-17T10:37:23.627Z,99.90
2018-10-17T10:39:52.448Z,99.90
2018-10-17T10:42:21.426Z,99.90
2018-10-17T10:44:50.372Z,99.90
2018-10-17T10:47:19.322Z,99.90
2018-10-17T10:49:48.147Z,99.90
2018-10-17T10:52:16.837Z,99.90
2018-10-17T10:54:45.503Z,99.90
2018-10-17T10:57:14.850Z,99.90
2018-10-17T10:59:43.775Z,99.90
2018-10-17T11:02:12.567Z,99.90
2018-10-17T11:04:41.615Z,99.90
2018-10-17T11:07:10.541Z,99.90
2018-10-17T11:09:39.549Z,99.90
2018-10-17T11:12:08.480Z,99.90
2018-10-17T11:18:03.488Z,99.90
2018-10-17T11:20:33.385Z,99.90
2018-10-17T11:23:07.492Z,99.90
2018-10-17T11:25:36.696Z,99.90
2018-10-17T11:28:39.039Z,99.90
2018-10-17T11:31:07.762Z,99.90
2018-10-17T11:33:39.389Z,99.90
2018-10-17T11:36:09.806Z,99.90
2018-10-17T11:38:39.203Z,99.90
2018-10-17T11:41:34.985Z,99.90
2018-10-17T11:44:03.880Z,99.90
2018-10-17T11:49:43.421Z,99.90
2018-10-17T11:52:12.641Z,99.90
2018-10-17T11:54:41.755Z,99.90
2018-10-17T11:57:11.276Z,99.90
2018-10-17T11:59:41.150Z,99.90
2018-10-17T12:02:11.290Z,99.90
2018-10-17T12:04:41.125Z,99.90
2018-10-17T12:07:16.428Z,99.90
2018-10-17T12:09:45.731Z,99.90
2018-10-17T12:12:14.953Z,99.90
2018-10-17T12:14:44.366Z,99.90
2018-10-17T12:17:13.999Z,99.90
2018-10-17T12:19:43.207Z,99.90
2018-10-17T12:22:12.291Z,99.90
2018-10-17T12:24:53.733Z,99.90
2018-10-17T12:27:25.273Z,99.90
2018-10-17T12:29:58.199Z,99.90
2018-10-17T12:32:27.488Z,99.90
2018-10-17T12:34:56.884Z,99.60
2018-10-17T12:37:29.307Z,94.70
2018-10-17T12:40:01.016Z,88.80
2018-10-17T12:42:47.307Z,80.70
2018-10-17T12:45:17.388Z,73.80
2018-10-17T12:47:46.279Z,59.90
2018-10-17T12:50:15.743Z,56.10
2018-10-17T12:52:45.177Z,50.20
2018-10-17T12:55:14.191Z,48.30
2018-10-17T12:57:43.173Z,47.50
2018-10-17T13:00:13.393Z,47.70
2018-10-17T13:02:42.325Z,47.90
2018-10-17T13:05:11.480Z,46.70
2018-10-17T13:07:40.347Z,47.40
2018-10-17T13:10:10.652Z,47.40
2018-10-17T13:12:40.508Z,44.80
2018-10-17T13:15:12.793Z,43.90
2018-10-17T13:17:43.088Z,42.90
2018-10-17T13:20:12.905Z,42.00
2018-10-17T13:22:42.206Z,41.00
2018-10-17T13:25:11.672Z,41.20
2018-10-17T13:27:41.405Z,42.60
2018-10-17T13:30:10.577Z,42.70
2018-10-17T13:32:39.846Z,41.30
2018-10-17T13:35:10.799Z,41.30
2018-10-17T13:37:43.893Z,42.20
2018-10-17T13:40:13.501Z,42.90
2018-10-17T13:42:42.712Z,44.20
2018-10-17T13:45:11.920Z,44.80
2018-10-17T13:47:41.159Z,45.20
2018-10-17T13:50:10.555Z,46.60
2018-10-17T13:52:39.754Z,48.30
2018-10-17T13:55:09.163Z,48.50
2018-10-17T13:57:38.483Z,48.80
2018-10-17T14:00:11.005Z,47.80
2018-10-17T14:02:41.126Z,47.90
2018-10-17T14:05:10.902Z,49.00
2018-10-17T14:07:40.086Z,47.70
2018-10-17T14:10:09.895Z,47.00
2018-10-17T14:12:39.543Z,48.60
2018-10-17T14:15:08.935Z,47.60
2018-10-17T14:17:38.386Z,48.90
2018-10-17T14:20:07.574Z,48.80
2018-10-17T14:22:37.297Z,50.10
2018-10-17T14:25:06.719Z,51.20
2018-10-17T14:27:35.729Z,51.80
2018-10-17T14:30:05.192Z,52.60
2018-10-17T14:32:34.417Z,53.80
2018-10-17T14:35:04.251Z,54.80
2018-10-17T14:37:34.225Z,55.60
2018-10-17T14:40:03.865Z,55.70
2018-10-17T14:42:33.393Z,56.70
2018-10-17T14:45:02.665Z,57.70
2018-10-17T14:47:31.855Z,58.60
2018-10-17T14:50:01.377Z,59.30
2018-10-17T14:52:30.713Z,60.50
2018-10-17T14:55:00.055Z,61.30
2018-10-17T14:57:29.511Z,62.60
2018-10-17T14:59:58.893Z,63.40
2018-10-17T15:02:28.900Z,64.10
2018-10-17T15:04:58.387Z,65.70
2018-10-17T15:07:27.647Z,66.60
2018-10-17T15:09:57.143Z,68.80
2018-10-17T15:12:26.460Z,71.40
2018-10-17T15:14:55.916Z,74.20
2018-10-17T15:17:25.340Z,77.00
2018-10-17T15:19:54.943Z,79.10
2018-10-17T15:22:24.324Z,82.40
2018-10-17T15:24:53.418Z,85.20
2018-10-17T15:27:23.047Z,87.70
2018-10-17T15:29:53.276Z,90.20
2018-10-17T15:32:22.553Z,91.50
2018-10-17T15:34:52.054Z,92.40
2018-10-17T15:37:21.561Z,93.40
2018-10-17T15:39:51.267Z,94.50
2018-10-17T15:42:20.433Z,95.50
2018-10-17T15:44:50.590Z,96.40
2018-10-17T15:47:19.785Z,97.30
2018-10-17T15:49:49.018Z,98.00
2018-10-17T15:52:18.398Z,99.10
2018-10-17T15:54:47.633Z,99.70
2018-10-17T15:57:16.871Z,99.90
2018-10-17T15:59:46.414Z,99.90
2018-10-17T16:02:16.034Z,99.90
2018-10-17T16:04:45.150Z,99.90
2018-10-17T16:07:14.590Z,99.90
2018-10-17T16:09:47.786Z,99.90
2018-10-17T16:12:17.184Z,99.90
2018-10-17T16:14:46.378Z,99.90
2018-10-17T16:17:15.855Z,99.90
2018-10-17T16:19:45.218Z,99.90
2018-10-17T16:22:14.415Z,99.90
2018-10-17T16:24:44.109Z,99.90
2018-10-17T16:27:13.223Z,99.90
2018-10-17T16:29:42.229Z,99.90
2018-10-17T16:32:11.263Z,99.90
2018-10-17T16:34:40.667Z,99.90
2018-10-17T16:37:09.870Z,99.90
2018-10-17T16:39:39.542Z,99.90
2018-10-17T16:42:08.936Z,99.90
2018-10-17T16:44:38.398Z,99.90
2018-10-17T16:47:07.711Z,99.90
2018-10-17T16:49:37.119Z,99.90
2018-10-17T16:52:06.477Z,99.90
2018-10-17T16:54:36.522Z,99.90
2018-10-17T16:57:06.567Z,99.90
2018-10-17T16:59:35.943Z,99.90
2018-10-17T17:02:05.465Z,99.90
2018-10-17T17:04:34.815Z,99.90
2018-10-17T17:07:04.893Z,99.90
2018-10-17T17:09:34.085Z,99.90
2018-10-17T17:12:03.463Z,99.90
2018-10-17T17:14:33.248Z,99.90
2018-10-17T17:17:02.380Z,99.90
2018-10-17T17:19:32.815Z,99.90
2018-10-17T17:22:02.335Z,99.90
2018-10-17T17:24:31.534Z,99.90
2018-10-17T17:27:00.628Z,99.90
2018-10-17T17:29:30.123Z,99.90
2018-10-17T17:31:59.392Z,99.90
2018-10-17T17:34:28.662Z,99.90
2018-10-17T17:36:57.804Z,99.90
2018-10-17T17:39:27.219Z,99.90
2018-10-17T17:41:56.643Z,99.90
2018-10-17T17:44:25.770Z,99.90
2018-10-17T17:46:55.131Z,99.90
2018-10-17T17:49:24.373Z,99.90
2018-10-17T17:51:54.306Z,99.90
2018-10-17T17:54:23.705Z,99.90
2018-10-17T17:56:53.081Z,99.90
2018-10-17T17:59:22.252Z,99.90
2018-10-17T18:01:51.661Z,99.90
2018-10-17T18:04:20.823Z,99.90
2018-10-17T18:06:50.180Z,99.90
2018-10-17T18:09:19.580Z,99.90
2018-10-17T18:11:48.767Z,99.90
2018-10-17T18:14:18.468Z,99.90
2018-10-17T18:16:48.109Z,99.90
2018-10-17T18:19:17.370Z,99.90
2018-10-17T18:21:46.815Z,99.90
2018-10-17T18:24:16.075Z,99.90
2018-10-17T18:26:45.386Z,99.90
2018-10-17T18:29:14.568Z,99.90
2018-10-17T18:31:43.753Z,99.90
2018-10-17T18:34:13.277Z,99.90
2018-10-17T18:36:42.579Z,99.90
2018-10-17T18:39:11.799Z,99.90
2018-10-17T18:41:41.190Z,99.90
2018-10-17T18:44:10.665Z,99.90
2018-10-17T18:46:39.952Z,99.90
2018-10-17T18:49:09.163Z,99.90
2018-10-17T18:51:38.549Z,99.90
2018-10-17T18:54:07.921Z,99.90
2018-10-17T18:56:38.271Z,99.90
2018-10-17T18:59:07.523Z,99.90
2018-10-17T19:01:37.173Z,99.90
2018-10-17T19:04:07.028Z,99.90
2018-10-17T19:06:36.159Z,99.90
2018-10-17T19:09:12.681Z,99.90
2018-10-17T19:11:41.877Z,99.90
2018-10-17T19:14:11.424Z,99.90
2018-10-17T19:16:40.828Z,99.90
2018-10-17T19:19:10.061Z,99.90
2018-10-17T19:21:39.316Z,99.90
2018-10-17T19:24:08.475Z,99.90
2018-10-17T19:26:37.846Z,99.90
2018-10-17T19:29:07.340Z,99.90
2018-10-17T19:31:36.599Z,99.90
2018-10-17T19:34:05.970Z,99.90
2018-10-17T19:36:35.332Z,99.90
2018-10-17T19:39:05.845Z,99.90
2018-10-17T19:41:35.059Z,99.90
2018-10-17T19:44:04.460Z,99.90
2018-10-17T19:46:33.743Z,99.90
2018-10-17T19:49:07.133Z,99.90
2018-10-17T19:51:36.462Z,99.90
2018-10-17T19:54:06.588Z,99.90
2018-10-17T19:56:35.859Z,99.90
2018-10-17T19:59:05.358Z,99.90
2018-10-17T20:01:34.539Z,99.90
2018-10-17T20:04:03.886Z,99.90
2018-10-17T20:06:33.121Z,99.90
2018-10-17T20:09:02.370Z,99.90
2018-10-17T20:11:31.870Z,99.90
2018-10-17T20:14:02.112Z,99.90
2018-10-17T20:16:31.391Z,99.90
2018-10-17T20:19:00.594Z,99.90
2018-10-17T20:21:29.692Z,99.90
2018-10-17T20:23:59.003Z,99.90
2018-10-17T20:26:28.305Z,99.90
2018-10-17T20:28:58.143Z,99.90
2018-10-17T20:31:28.011Z,99.90
2018-10-17T20:33:57.405Z,99.90
2018-10-17T20:36:26.771Z,99.90
2018-10-17T20:38:56.120Z,99.90
2018-10-17T20:41:25.544Z,99.90
2018-10-17T20:43:55.565Z,99.90
2018-10-17T20:46:25.624Z,99.90
2018-10-17T20:48:55.403Z,99.90
2018-10-17T20:51:24.651Z,99.90
2018-10-17T20:53:53.879Z,99.90
2018-10-17T20:56:23.275Z,99.90
2018-10-17T20:58:52.461Z,99.90
2018-10-17T21:01:22.359Z,99.90
2018-10-17T21:03:51.524Z,99.90
2018-10-17T21:06:21.947Z,99.90
2018-10-17T21:08:51.321Z,99.90
2018-10-17T21:11:20.763Z,99.90
2018-10-17T21:13:49.816Z,99.90
2018-10-17T21:16:19.135Z,99.90
2018-10-17T21:18:48.988Z,99.90
2018-10-17T21:21:18.194Z,99.90
2018-10-17T21:23:56.807Z,99.90
2018-10-17T21:26:25.905Z,99.90
2018-10-17T21:28:55.480Z,99.90
2018-10-17T21:31:25.992Z,99.90
2018-10-17T21:33:55.176Z,99.90
2018-10-17T21:36:24.601Z,99.90
2018-10-17T21:38:54.050Z,99.90
2018-10-17T21:41:23.122Z,99.90
2018-10-17T21:43:52.669Z,99.90
2018-10-17T21:46:22.180Z,99.90
2018-10-17T21:48:55.259Z,99.90
2018-10-17T21:51:24.561Z,99.90
2018-10-17T21:53:54.156Z,99.90
2018-10-17T21:56:23.491Z,99.90
2018-10-17T21:58:53.133Z,99.90
2018-10-17T22:01:22.673Z,99.90
2018-10-17T22:03:51.887Z,99.90
2018-10-17T22:06:24.729Z,99.90
2018-10-17T22:08:53.857Z,99.90
2018-10-17T22:11:23.121Z,99.90
2018-10-17T22:13:52.537Z,99.90
2018-10-17T22:16:24.913Z,99.90
2018-10-17T22:18:54.393Z,99.90
2018-10-17T22:21:23.871Z,99.90
2018-10-17T22:23:53.310Z,99.90
2018-10-17T22:26:22.608Z,99.90
2018-10-17T22:28:51.954Z,99.90
2018-10-17T22:31:21.601Z,99.90
2018-10-17T22:33:50.702Z,99.90
2018-10-17T22:36:19.897Z,99.90
2018-10-17T22:38:49.401Z,99.90
2018-10-17T22:41:18.840Z,99.90
2018-10-17T22:43:48.317Z,99.90
2018-10-17T22:46:18.086Z,99.90
2018-10-17T22:48:47.231Z,99.90
2018-10-17T22:51:16.912Z,99.90
2018-10-17T22:53:46.288Z,99.90
2018-10-17T22:56:15.651Z,99.90
2018-10-17T22:58:45.125Z,99.90
2018-10-17T23:01:14.461Z,99.90
2018-10-17T23:03:44.046Z,99.90
2018-10-17T23:06:13.423Z,99.90
2018-10-17T23:08:42.858Z,99.90
2018-10-17T23:11:12.214Z,99.90
2018-10-17T23:13:41.306Z,99.90
2018-10-17T23:16:10.326Z,99.90
2018-10-17T23:18:39.620Z,99.90
2018-10-17T23:21:09.320Z,99.90
2018-10-17T23:23:38.335Z,99.90
2018-10-17T23:26:11.099Z,99.90
2018-10-17T23:28:40.188Z,99.90
2018-10-17T23:31:09.298Z,99.90
2018-10-17T23:33:38.600Z,99.90
2018-10-17T23:36:07.808Z,99.90
2018-10-17T23:38:37.065Z,99.90
2018-10-17T23:41:06.474Z,99.90
2018-10-17T23:43:35.794Z,99.90
2018-10-17T23:46:05.070Z,99.90
2018-10-17T23:48:34.260Z,99.90
2018-10-17T23:51:04.000Z,99.90
2018-10-17T23:53:33.960Z,99.90
2018-10-17T23:56:03.194Z,99.90
2018-10-17T23:58:32.528Z,99.90
